sensor_id;sensor_type;location;lat;lon;timestamp;pressure;altitude;pressure_sealevel;temperature;humidity
54600;BME280;40500;51.084;16.958;2023-03-26T00:00:15;99198.61;;;7.27;100.00
54600;BME280;40500;51.084;16.958;2023-03-26T00:02:46;99200.23;;;7.25;100.00
54600;BME280;40500;51.084;16.958;2023-03-26T00:05:16;99201.49;;;7.23;100.00
54600;BME280;40500;51.084;16.958;2023-03-26T00:07:47;99199.27;;;7.21;100.00
54600;BME280;40500;51.084;16.958;2023-03-26T00:10:17;99200.52;;;7.20;100.00
54600;BME280;40500;51.084;16.958;2023-03-26T00:12:48;99198.27;;;7.19;100.00
54600;BME280;40500;51.084;16.958;2023-03-26T00:15:19;99200.89;;;7.19;100.00
54600;BME280;40500;51.084;16.958;2023-03-26T00:17:49;99199.14;;;7.19;100.00
54600;BME280;40500;51.084;16.958;2023-03-26T00:20:23;99197.39;;;7.20;100.00
54600;BME280;40500;51.084;16.958;2023-03-26T00:22:55;99192.68;;;7.20;100.00
54600;BME280;40500;51.084;16.958;2023-03-26T00:25:26;99189.59;;;7.18;100.00
54600;BME280;40500;51.084;16.958;2023-03-26T00:27:56;99187.02;;;7.16;100.00
54600;BME280;40500;51.084;16.958;2023-03-26T00:30:27;99183.61;;;7.12;100.00
54600;BME280;40500;51.084;16.958;2023-03-26T00:32:57;99183.66;;;7.10;100.00
54600;BME280;40500;51.084;16.958;2023-03-26T00:35:29;99183.38;;;7.07;100.00
54600;BME280;40500;51.084;16.958;2023-03-26T00:37:59;99177.85;;;7.05;100.00
54600;BME280;40500;51.084;16.958;2023-03-26T00:40:30;99178.08;;;7.02;100.00
54600;BME280;40500;51.084;16.958;2023-03-26T00:43:04;99182.13;;;7.00;100.00
54600;BME280;40500;51.084;16.958;2023-03-26T00:45:50;99176.40;;;7.00;100.00
54600;BME280;40500;51.084;16.958;2023-03-26T00:48:22;99174.86;;;6.98;100.00
54600;BME280;40500;51.084;16.958;2023-03-26T00:51:11;99176.41;;;6.99;100.00
54600;BME280;40500;51.084;16.958;2023-03-26T00:53:45;99175.02;;;6.99;100.00
54600;BME280;40500;51.084;16.958;2023-03-26T00:56:17;99172.63;;;6.97;100.00
54600;BME280;40500;51.084;16.958;2023-03-26T00:58:48;99172.16;;;6.94;100.00
54600;BME280;40500;51.084;16.958;2023-03-26T01:01:22;99176.06;;;6.91;100.00
54600;BME280;40500;51.084;16.958;2023-03-26T01:03:57;99174.89;;;6.88;100.00
54600;BME280;40500;51.084;16.958;2023-03-26T01:06:46;99171.11;;;6.85;100.00
54600;BME280;40500;51.084;16.958;2023-03-26T01:09:18;99169.08;;;6.83;100.00
54600;BME280;40500;51.084;16.958;2023-03-26T01:11:50;99170.35;;;6.80;100.00
54600;BME280;40500;51.084;16.958;2023-03-26T01:14:23;99167.42;;;6.80;100.00
54600;BME280;40500;51.084;16.958;2023-03-26T01:16:56;99167.73;;;6.81;100.00
54600;BME280;40500;51.084;16.958;2023-03-26T01:19:30;99167.19;;;6.82;100.00
54600;BME280;40500;51.084;16.958;2023-03-26T01:22:08;99164.41;;;6.82;100.00
54600;BME280;40500;51.084;16.958;2023-03-26T01:24:39;99171.49;;;6.85;100.00
54600;BME280;40500;51.084;16.958;2023-03-26T01:27:21;99169.16;;;6.87;100.00
54600;BME280;40500;51.084;16.958;2023-03-26T01:29:56;99169.64;;;6.90;100.00
54600;BME280;40500;51.084;16.958;2023-03-26T01:32:47;99170.15;;;6.90;100.00
54600;BME280;40500;51.084;16.958;2023-03-26T01:35:27;99171.23;;;6.88;100.00
54600;BME280;40500;51.084;16.958;2023-03-26T01:38:09;99174.61;;;6.85;100.00
54600;BME280;40500;51.084;16.958;2023-03-26T01:40:47;99169.48;;;6.80;100.00
54600;BME280;40500;51.084;16.958;2023-03-26T01:43:26;99170.77;;;6.77;100.00
54600;BME280;40500;51.084;16.958;2023-03-26T01:45:59;99170.80;;;6.76;100.00
54600;BME280;40500;51.084;16.958;2023-03-26T01:48:35;99171.50;;;6.76;100.00
54600;BME280;40500;51.084;16.958;2023-03-26T01:51:08;99173.92;;;6.76;100.00
54600;BME280;40500;51.084;16.958;2023-03-26T01:53:42;99172.14;;;6.78;100.00
54600;BME280;40500;51.084;16.958;2023-03-26T01:56:20;99169.63;;;6.82;100.00
54600;BME280;40500;51.084;16.958;2023-03-26T01:59:05;99168.85;;;6.86;100.00
54600;BME280;40500;51.084;16.958;2023-03-26T02:01:44;99166.52;;;6.89;100.00
54600;BME280;40500;51.084;16.958;2023-03-26T02:04:27;99162.43;;;6.94;100.00
54600;BME280;40500;51.084;16.958;2023-03-26T02:07:04;99160.73;;;6.99;100.00
54600;BME280;40500;51.084;16.958;2023-03-26T02:09:40;99155.23;;;7.04;100.00
54600;BME280;40500;51.084;16.958;2023-03-26T02:12:14;99159.13;;;7.09;100.00
54600;BME280;40500;51.084;16.958;2023-03-26T02:14:45;99157.47;;;7.14;100.00
54600;BME280;40500;51.084;16.958;2023-03-26T02:17:16;99152.52;;;7.17;100.00
54600;BME280;40500;51.084;16.958;2023-03-26T02:19:47;99156.12;;;7.20;100.00
54600;BME280;40500;51.084;16.958;2023-03-26T02:22:17;99152.39;;;7.23;100.00
54600;BME280;40500;51.084;16.958;2023-03-26T02:24:49;99148.36;;;7.24;100.00
54600;BME280;40500;51.084;16.958;2023-03-26T02:27:19;99152.52;;;7.25;100.00
54600;BME280;40500;51.084;16.958;2023-03-26T02:29:50;99149.98;;;7.22;100.00
54600;BME280;40500;51.084;16.958;2023-03-26T02:32:22;99153.98;;;7.22;100.00
54600;BME280;40500;51.084;16.958;2023-03-26T02:34:55;99149.60;;;7.23;100.00
54600;BME280;40500;51.084;16.958;2023-03-26T02:37:26;99147.52;;;7.23;100.00
54600;BME280;40500;51.084;16.958;2023-03-26T02:40:03;99150.64;;;7.24;100.00
54600;BME280;40500;51.084;16.958;2023-03-26T02:42:40;99154.94;;;7.26;100.00
54600;BME280;40500;51.084;16.958;2023-03-26T02:45:11;99153.90;;;7.25;100.00
54600;BME280;40500;51.084;16.958;2023-03-26T02:48:13;99149.03;;;7.25;100.00
54600;BME280;40500;51.084;16.958;2023-03-26T02:51:07;99145.88;;;7.26;100.00
54600;BME280;40500;51.084;16.958;2023-03-26T02:54:10;99152.13;;;7.27;100.00
54600;BME280;40500;51.084;16.958;2023-03-26T02:56:53;99145.64;;;7.29;100.00
54600;BME280;40500;51.084;16.958;2023-03-26T02:59:43;99146.80;;;7.31;100.00
54600;BME280;40500;51.084;16.958;2023-03-26T03:02:37;99137.17;;;7.33;100.00
54600;BME280;40500;51.084;16.958;2023-03-26T03:05:27;99139.95;;;7.34;100.00
54600;BME280;40500;51.084;16.958;2023-03-26T03:08:18;99135.56;;;7.36;100.00
54600;BME280;40500;51.084;16.958;2023-03-26T03:11:02;99142.33;;;7.37;100.00
54600;BME280;40500;51.084;16.958;2023-03-26T03:13:40;99141.59;;;7.38;100.00
54600;BME280;40500;51.084;16.958;2023-03-26T03:16:11;99140.02;;;7.39;100.00
54600;BME280;40500;51.084;16.958;2023-03-26T03:18:41;99145.41;;;7.39;100.00
54600;BME280;40500;51.084;16.958;2023-03-26T03:21:12;99145.08;;;7.38;100.00
54600;BME280;40500;51.084;16.958;2023-03-26T03:23:42;99149.80;;;7.38;100.00
54600;BME280;40500;51.084;16.958;2023-03-26T03:26:16;99148.23;;;7.37;100.00
54600;BME280;40500;51.084;16.958;2023-03-26T03:28:53;99149.64;;;7.37;100.00
54600;BME280;40500;51.084;16.958;2023-03-26T03:31:26;99152.39;;;7.38;100.00
54600;BME280;40500;51.084;16.958;2023-03-26T03:34:02;99150.48;;;7.39;100.00
54600;BME280;40500;51.084;16.958;2023-03-26T03:36:35;99158.59;;;7.41;100.00
54600;BME280;40500;51.084;16.958;2023-03-26T03:39:18;99158.77;;;7.41;100.00
54600;BME280;40500;51.084;16.958;2023-03-26T03:41:49;99162.59;;;7.42;100.00
54600;BME280;40500;51.084;16.958;2023-03-26T03:44:19;99166.02;;;7.44;100.00
54600;BME280;40500;51.084;16.958;2023-03-26T03:46:50;99171.05;;;7.45;100.00
54600;BME280;40500;51.084;16.958;2023-03-26T03:49:22;99172.41;;;7.47;100.00
54600;BME280;40500;51.084;16.958;2023-03-26T03:51:53;99171.73;;;7.52;100.00
54600;BME280;40500;51.084;16.958;2023-03-26T03:54:28;99172.47;;;7.59;100.00
54600;BME280;40500;51.084;16.958;2023-03-26T03:57:19;99169.99;;;7.60;100.00
54600;BME280;40500;51.084;16.958;2023-03-26T04:00:03;99173.10;;;7.61;100.00
54600;BME280;40500;51.084;16.958;2023-03-26T04:02:47;99178.29;;;7.63;100.00
54600;BME280;40500;51.084;16.958;2023-03-26T04:05:18;99173.88;;;7.66;100.00
54600;BME280;40500;51.084;16.958;2023-03-26T04:07:49;99168.63;;;7.67;100.00
54600;BME280;40500;51.084;16.958;2023-03-26T04:10:36;99173.11;;;7.69;100.00
54600;BME280;40500;51.084;16.958;2023-03-26T04:13:09;99175.48;;;7.71;100.00
54600;BME280;40500;51.084;16.958;2023-03-26T04:15:52;99174.34;;;7.75;100.00
54600;BME280;40500;51.084;16.958;2023-03-26T04:18:24;99178.83;;;7.77;100.00
54600;BME280;40500;51.084;16.958;2023-03-26T04:20:57;99178.93;;;7.80;100.00
54600;BME280;40500;51.084;16.958;2023-03-26T04:23:32;99178.20;;;7.82;100.00
54600;BME280;40500;51.084;16.958;2023-03-26T04:26:10;99180.61;;;7.83;100.00
54600;BME280;40500;51.084;16.958;2023-03-26T04:29:11;99178.83;;;7.84;100.00
54600;BME280;40500;51.084;16.958;2023-03-26T04:31:53;99180.02;;;7.85;100.00
54600;BME280;40500;51.084;16.958;2023-03-26T04:34:27;99179.14;;;7.85;100.00
54600;BME280;40500;51.084;16.958;2023-03-26T04:37:16;99185.23;;;7.86;100.00
54600;BME280;40500;51.084;16.958;2023-03-26T04:40:00;99182.27;;;7.86;100.00
54600;BME280;40500;51.084;16.958;2023-03-26T04:42:40;99184.57;;;7.85;100.00
54600;BME280;40500;51.084;16.958;2023-03-26T04:45:26;99184.28;;;7.82;100.00
54600;BME280;40500;51.084;16.958;2023-03-26T04:47:58;99188.70;;;7.80;100.00
54600;BME280;40500;51.084;16.958;2023-03-26T04:50:30;99188.27;;;7.76;100.00
54600;BME280;40500;51.084;16.958;2023-03-26T04:53:01;99188.35;;;7.73;100.00
54600;BME280;40500;51.084;16.958;2023-03-26T04:55:56;99186.94;;;7.66;100.00
54600;BME280;40500;51.084;16.958;2023-03-26T04:59:02;99187.45;;;7.59;100.00
54600;BME280;40500;51.084;16.958;2023-03-26T05:01:35;99183.55;;;7.54;100.00
54600;BME280;40500;51.084;16.958;2023-03-26T05:04:09;99191.16;;;7.49;100.00
54600;BME280;40500;51.084;16.958;2023-03-26T05:06:39;99187.42;;;7.45;100.00
54600;BME280;40500;51.084;16.958;2023-03-26T05:09:19;99189.07;;;7.41;100.00
54600;BME280;40500;51.084;16.958;2023-03-26T05:12:11;99191.91;;;7.39;100.00
54600;BME280;40500;51.084;16.958;2023-03-26T05:14:58;99193.90;;;7.35;100.00
54600;BME280;40500;51.084;16.958;2023-03-26T05:17:40;99194.48;;;7.33;100.00
54600;BME280;40500;51.084;16.958;2023-03-26T05:20:19;99188.75;;;7.31;100.00
54600;BME280;40500;51.084;16.958;2023-03-26T05:22:50;99191.20;;;7.31;100.00
54600;BME280;40500;51.084;16.958;2023-03-26T05:25:25;99198.70;;;7.30;100.00
54600;BME280;40500;51.084;16.958;2023-03-26T05:27:56;99198.56;;;7.29;100.00
54600;BME280;40500;51.084;16.958;2023-03-26T05:30:31;99195.24;;;7.30;100.00
54600;BME280;40500;51.084;16.958;2023-03-26T05:33:02;99192.98;;;7.30;100.00
54600;BME280;40500;51.084;16.958;2023-03-26T05:35:40;99192.09;;;7.31;100.00
54600;BME280;40500;51.084;16.958;2023-03-26T05:38:12;99191.21;;;7.31;100.00
54600;BME280;40500;51.084;16.958;2023-03-26T05:40:42;99190.09;;;7.34;100.00
54600;BME280;40500;51.084;16.958;2023-03-26T05:43:21;99189.20;;;7.36;100.00
54600;BME280;40500;51.084;16.958;2023-03-26T05:46:08;99187.70;;;7.40;100.00
54600;BME280;40500;51.084;16.958;2023-03-26T05:48:38;99188.52;;;7.43;100.00
54600;BME280;40500;51.084;16.958;2023-03-26T05:51:09;99188.10;;;7.45;100.00
54600;BME280;40500;51.084;16.958;2023-03-26T05:53:43;99188.37;;;7.49;100.00
54600;BME280;40500;51.084;16.958;2023-03-26T05:59:28;99193.86;;;7.45;100.00
54600;BME280;40500;51.084;16.958;2023-03-26T06:02:17;99197.20;;;7.44;100.00
54600;BME280;40500;51.084;16.958;2023-03-26T06:05:13;99199.59;;;7.46;100.00
54600;BME280;40500;51.084;16.958;2023-03-26T06:07:55;99198.25;;;7.51;100.00
54600;BME280;40500;51.084;16.958;2023-03-26T06:10:32;99201.83;;;7.55;100.00
54600;BME280;40500;51.084;16.958;2023-03-26T06:13:03;99198.00;;;7.55;100.00
54600;BME280;40500;51.084;16.958;2023-03-26T06:15:37;99199.71;;;7.56;100.00
54600;BME280;40500;51.084;16.958;2023-03-26T06:18:22;99199.90;;;7.63;100.00
54600;BME280;40500;51.084;16.958;2023-03-26T06:21:11;99197.59;;;7.72;100.00
54600;BME280;40500;51.084;16.958;2023-03-26T06:23:47;99197.44;;;7.79;100.00
54600;BME280;40500;51.084;16.958;2023-03-26T06:26:52;99195.30;;;7.87;100.00
54600;BME280;40500;51.084;16.958;2023-03-26T06:29:41;99200.69;;;7.95;100.00
54600;BME280;40500;51.084;16.958;2023-03-26T06:32:32;99202.73;;;8.04;100.00
54600;BME280;40500;51.084;16.958;2023-03-26T06:35:08;99195.45;;;8.10;100.00
54600;BME280;40500;51.084;16.958;2023-03-26T06:37:39;99199.46;;;8.17;100.00
54600;BME280;40500;51.084;16.958;2023-03-26T06:40:11;99199.14;;;8.23;100.00
54600;BME280;40500;51.084;16.958;2023-03-26T06:43:16;99200.36;;;8.29;100.00
54600;BME280;40500;51.084;16.958;2023-03-26T06:46:06;99195.67;;;8.35;100.00
54600;BME280;40500;51.084;16.958;2023-03-26T06:48:40;99193.64;;;8.40;100.00
54600;BME280;40500;51.084;16.958;2023-03-26T06:51:29;99195.26;;;8.46;100.00
54600;BME280;40500;51.084;16.958;2023-03-26T06:54:09;99195.32;;;8.50;100.00
54600;BME280;40500;51.084;16.958;2023-03-26T06:56:45;99199.14;;;8.57;100.00
54600;BME280;40500;51.084;16.958;2023-03-26T06:59:39;99194.57;;;8.65;100.00
54600;BME280;40500;51.084;16.958;2023-03-26T07:02:28;99195.97;;;8.71;100.00
54600;BME280;40500;51.084;16.958;2023-03-26T07:05:37;99194.73;;;8.78;100.00
54600;BME280;40500;51.084;16.958;2023-03-26T07:08:12;99194.92;;;8.83;100.00
54600;BME280;40500;51.084;16.958;2023-03-26T07:11:01;99196.79;;;8.85;100.00
54600;BME280;40500;51.084;16.958;2023-03-26T07:13:53;99207.73;;;8.88;100.00
54600;BME280;40500;51.084;16.958;2023-03-26T07:16:48;99213.67;;;8.87;100.00
54600;BME280;40500;51.084;16.958;2023-03-26T07:19:38;99218.23;;;8.80;100.00
54600;BME280;40500;51.084;16.958;2023-03-26T07:22:14;99212.40;;;8.70;100.00
54600;BME280;40500;51.084;16.958;2023-03-26T07:25:05;99209.58;;;8.58;100.00
54600;BME280;40500;51.084;16.958;2023-03-26T07:28:01;99208.23;;;8.49;100.00
54600;BME280;40500;51.084;16.958;2023-03-26T07:31:18;99208.63;;;8.48;100.00
54600;BME280;40500;51.084;16.958;2023-03-26T07:34:02;99209.64;;;8.50;100.00
54600;BME280;40500;51.084;16.958;2023-03-26T07:36:47;99205.31;;;8.54;100.00
54600;BME280;40500;51.084;16.958;2023-03-26T07:39:45;99206.80;;;8.64;100.00
54600;BME280;40500;51.084;16.958;2023-03-26T07:42:39;99206.24;;;8.72;100.00
54600;BME280;40500;51.084;16.958;2023-03-26T07:45:35;99200.46;;;8.85;100.00
54600;BME280;40500;51.084;16.958;2023-03-26T07:48:38;99205.46;;;9.00;100.00
54600;BME280;40500;51.084;16.958;2023-03-26T07:51:32;99202.27;;;9.14;100.00
54600;BME280;40500;51.084;16.958;2023-03-26T07:54:12;99199.98;;;9.26;100.00
54600;BME280;40500;51.084;16.958;2023-03-26T07:57:32;99193.47;;;9.39;100.00
54600;BME280;40500;51.084;16.958;2023-03-26T08:00:32;99188.36;;;9.52;100.00
54600;BME280;40500;51.084;16.958;2023-03-26T08:06:29;99184.98;;;9.55;100.00
54600;BME280;40500;51.084;16.958;2023-03-26T08:09:25;99184.92;;;9.57;100.00
54600;BME280;40500;51.084;16.958;2023-03-26T08:12:25;99189.12;;;9.61;100.00
54600;BME280;40500;51.084;16.958;2023-03-26T08:15:05;99188.01;;;9.63;100.00
54600;BME280;40500;51.084;16.958;2023-03-26T08:17:43;99186.11;;;9.62;100.00
54600;BME280;40500;51.084;16.958;2023-03-26T08:20:26;99186.12;;;9.67;100.00
54600;BME280;40500;51.084;16.958;2023-03-26T08:23:06;99186.20;;;9.71;100.00
54600;BME280;40500;51.084;16.958;2023-03-26T08:25:48;99186.05;;;9.70;100.00
54600;BME280;40500;51.084;16.958;2023-03-26T08:28:30;99178.21;;;9.68;100.00
54600;BME280;40500;51.084;16.958;2023-03-26T08:31:08;99174.37;;;9.74;100.00
54600;BME280;40500;51.084;16.958;2023-03-26T08:33:39;99172.05;;;9.81;100.00
54600;BME280;40500;51.084;16.958;2023-03-26T08:36:11;99166.64;;;9.92;100.00
54600;BME280;40500;51.084;16.958;2023-03-26T08:38:41;99166.71;;;10.00;100.00
54600;BME280;40500;51.084;16.958;2023-03-26T08:41:45;99163.35;;;10.06;100.00
54600;BME280;40500;51.084;16.958;2023-03-26T08:51:10;99152.86;;;10.48;100.00
54600;BME280;40500;51.084;16.958;2023-03-26T08:56:52;99147.04;;;10.68;100.00
54600;BME280;40500;51.084;16.958;2023-03-26T09:02:49;99144.05;;;10.64;100.00
54600;BME280;40500;51.084;16.958;2023-03-26T09:05:42;99147.16;;;10.70;100.00
54600;BME280;40500;51.084;16.958;2023-03-26T09:08:51;99142.84;;;10.83;100.00
54600;BME280;40500;51.084;16.958;2023-03-26T09:12:02;99141.73;;;10.94;100.00
54600;BME280;40500;51.084;16.958;2023-03-26T09:24:16;99135.98;;;11.21;100.00
54600;BME280;40500;51.084;16.958;2023-03-26T09:27:02;99133.20;;;11.29;100.00
54600;BME280;40500;51.084;16.958;2023-03-26T09:32:58;99140.47;;;11.49;100.00
54600;BME280;40500;51.084;16.958;2023-03-26T09:35:49;99149.16;;;11.19;100.00
54600;BME280;40500;51.084;16.958;2023-03-26T09:38:40;99152.05;;;10.89;100.00
54600;BME280;40500;51.084;16.958;2023-03-26T09:41:19;99152.30;;;10.72;100.00
54600;BME280;40500;51.084;16.958;2023-03-26T09:44:28;99154.64;;;10.66;100.00
54600;BME280;40500;51.084;16.958;2023-03-26T09:47:33;99149.98;;;10.64;100.00
54600;BME280;40500;51.084;16.958;2023-03-26T09:50:25;99148.21;;;10.75;100.00
54600;BME280;40500;51.084;16.958;2023-03-26T09:56:00;99141.71;;;11.03;100.00
54600;BME280;40500;51.084;16.958;2023-03-26T09:58:56;99142.84;;;11.10;100.00
54600;BME280;40500;51.084;16.958;2023-03-26T10:01:33;99143.27;;;11.04;100.00
54600;BME280;40500;51.084;16.958;2023-03-26T10:04:30;99147.83;;;11.04;100.00
54600;BME280;40500;51.084;16.958;2023-03-26T10:07:11;99151.29;;;11.00;100.00
54600;BME280;40500;51.084;16.958;2023-03-26T10:09:58;99152.48;;;10.92;100.00
54600;BME280;40500;51.084;16.958;2023-03-26T10:12:35;99159.55;;;10.76;100.00
54600;BME280;40500;51.084;16.958;2023-03-26T10:15:25;99159.40;;;10.60;100.00
54600;BME280;40500;51.084;16.958;2023-03-26T10:18:10;99153.48;;;10.45;100.00
54600;BME280;40500;51.084;16.958;2023-03-26T10:21:02;99147.27;;;10.38;100.00
54600;BME280;40500;51.084;16.958;2023-03-26T10:23:47;99146.09;;;10.37;100.00
54600;BME280;40500;51.084;16.958;2023-03-26T10:26:34;99142.63;;;10.36;100.00
54600;BME280;40500;51.084;16.958;2023-03-26T10:29:23;99137.20;;;10.40;100.00
54600;BME280;40500;51.084;16.958;2023-03-26T10:32:08;99132.67;;;10.64;100.00
54600;BME280;40500;51.084;16.958;2023-03-26T10:34:51;99126.64;;;10.90;100.00
54600;BME280;40500;51.084;16.958;2023-03-26T10:37:35;99128.20;;;10.99;100.00
54600;BME280;40500;51.084;16.958;2023-03-26T10:40:29;99130.40;;;11.01;100.00
54600;BME280;40500;51.084;16.958;2023-03-26T10:46:26;99128.27;;;11.07;100.00
54600;BME280;40500;51.084;16.958;2023-03-26T10:49:45;99119.67;;;11.07;100.00
54600;BME280;40500;51.084;16.958;2023-03-26T10:52:22;99118.14;;;10.97;100.00
54600;BME280;40500;51.084;16.958;2023-03-26T10:55:07;99116.33;;;10.94;100.00
54600;BME280;40500;51.084;16.958;2023-03-26T10:57:44;99115.48;;;11.02;100.00
54600;BME280;40500;51.084;16.958;2023-03-26T11:00:20;99113.66;;;11.14;100.00
54600;BME280;40500;51.084;16.958;2023-03-26T11:03:16;99103.29;;;11.32;100.00
54600;BME280;40500;51.084;16.958;2023-03-26T11:05:58;99107.20;;;11.47;100.00
54600;BME280;40500;51.084;16.958;2023-03-26T11:08:38;99099.73;;;11.59;100.00
54600;BME280;40500;51.084;16.958;2023-03-26T11:11:20;99093.06;;;11.60;100.00
54600;BME280;40500;51.084;16.958;2023-03-26T11:13:59;99091.02;;;11.54;100.00
54600;BME280;40500;51.084;16.958;2023-03-26T11:16:45;99091.21;;;11.49;100.00
54600;BME280;40500;51.084;16.958;2023-03-26T11:19:23;99084.38;;;11.44;100.00
54600;BME280;40500;51.084;16.958;2023-03-26T11:22:02;99080.56;;;11.48;100.00
54600;BME280;40500;51.084;16.958;2023-03-26T11:24:46;99084.20;;;11.66;100.00
54600;BME280;40500;51.084;16.958;2023-03-26T11:27:29;99081.98;;;11.85;100.00
54600;BME280;40500;51.084;16.958;2023-03-26T11:30:12;99082.79;;;12.16;100.00
54600;BME280;40500;51.084;16.958;2023-03-26T11:32:49;99071.69;;;12.53;100.00
54600;BME280;40500;51.084;16.958;2023-03-26T11:35:24;99071.25;;;12.71;100.00
54600;BME280;40500;51.084;16.958;2023-03-26T11:38:17;99066.81;;;12.79;100.00
54600;BME280;40500;51.084;16.958;2023-03-26T11:40:51;99066.09;;;12.87;100.00
54600;BME280;40500;51.084;16.958;2023-03-26T11:43:46;99064.34;;;12.68;100.00
54600;BME280;40500;51.084;16.958;2023-03-26T11:46:20;99065.33;;;12.46;100.00
54600;BME280;40500;51.084;16.958;2023-03-26T11:48:54;99072.95;;;12.33;100.00
54600;BME280;40500;51.084;16.958;2023-03-26T11:51:31;99072.39;;;12.18;100.00
54600;BME280;40500;51.084;16.958;2023-03-26T11:54:04;99070.77;;;12.11;100.00
54600;BME280;40500;51.084;16.958;2023-03-26T11:56:39;99070.29;;;11.97;100.00
54600;BME280;40500;51.084;16.958;2023-03-26T11:59:34;99064.20;;;11.83;100.00
54600;BME280;40500;51.084;16.958;2023-03-26T12:02:29;99062.43;;;11.71;100.00
54600;BME280;40500;51.084;16.958;2023-03-26T12:05:13;99070.92;;;11.52;100.00
54600;BME280;40500;51.084;16.958;2023-03-26T12:07:48;99069.40;;;11.38;100.00
54600;BME280;40500;51.084;16.958;2023-03-26T12:10:25;99069.30;;;11.57;100.00
54600;BME280;40500;51.084;16.958;2023-03-26T12:13:00;99069.44;;;11.75;100.00
54600;BME280;40500;51.084;16.958;2023-03-26T12:15:31;99062.40;;;11.84;100.00
54600;BME280;40500;51.084;16.958;2023-03-26T12:18:22;99065.51;;;11.99;100.00
54600;BME280;40500;51.084;16.958;2023-03-26T12:21:03;99056.25;;;12.09;100.00
54600;BME280;40500;51.084;16.958;2023-03-26T12:23:49;99049.59;;;12.25;100.00
54600;BME280;40500;51.084;16.958;2023-03-26T12:26:28;99051.88;;;12.41;100.00
54600;BME280;40500;51.084;16.958;2023-03-26T12:29:08;99046.92;;;12.50;100.00
54600;BME280;40500;51.084;16.958;2023-03-26T12:31:47;99044.28;;;12.46;100.00
54600;BME280;40500;51.084;16.958;2023-03-26T12:34:20;99043.65;;;12.37;100.00
54600;BME280;40500;51.084;16.958;2023-03-26T12:36:53;99039.76;;;12.33;100.00
54600;BME280;40500;51.084;16.958;2023-03-26T12:39:30;99035.77;;;12.28;100.00
54600;BME280;40500;51.084;16.958;2023-03-26T12:42:25;99034.96;;;12.38;100.00
54600;BME280;40500;51.084;16.958;2023-03-26T12:45:16;99029.61;;;12.71;100.00
54600;BME280;40500;51.084;16.958;2023-03-26T12:47:49;99029.73;;;13.09;100.00
54600;BME280;40500;51.084;16.958;2023-03-26T12:50:41;99025.70;;;13.34;100.00
54600;BME280;40500;51.084;16.958;2023-03-26T12:53:25;99017.85;;;13.96;100.00
54600;BME280;40500;51.084;16.958;2023-03-26T12:56:04;99013.81;;;14.91;100.00
54600;BME280;40500;51.084;16.958;2023-03-26T12:58:54;98997.77;;;15.84;100.00
54600;BME280;40500;51.084;16.958;2023-03-26T13:01:37;98998.21;;;15.39;100.00
54600;BME280;40500;51.084;16.958;2023-03-26T13:04:27;99000.94;;;14.88;100.00
54600;BME280;40500;51.084;16.958;2023-03-26T13:07:11;99001.20;;;14.71;100.00
54600;BME280;40500;51.084;16.958;2023-03-26T13:10:00;98996.88;;;14.92;100.00
54600;BME280;40500;51.084;16.958;2023-03-26T13:12:42;98993.79;;;14.91;100.00
54600;BME280;40500;51.084;16.958;2023-03-26T13:15:24;98992.05;;;14.80;100.00
54600;BME280;40500;51.084;16.958;2023-03-26T13:18:09;98989.24;;;14.71;100.00
54600;BME280;40500;51.084;16.958;2023-03-26T13:20:56;98988.56;;;14.60;100.00
54600;BME280;40500;51.084;16.958;2023-03-26T13:23:35;98983.73;;;14.59;100.00
54600;BME280;40500;51.084;16.958;2023-03-26T13:26:15;98986.90;;;14.68;100.00
54600;BME280;40500;51.084;16.958;2023-03-26T13:28:53;98980.89;;;14.91;100.00
54600;BME280;40500;51.084;16.958;2023-03-26T13:31:29;98982.27;;;15.01;100.00
54600;BME280;40500;51.084;16.958;2023-03-26T13:34:06;98985.15;;;14.81;100.00
54600;BME280;40500;51.084;16.958;2023-03-26T13:36:47;98983.81;;;14.86;100.00
54600;BME280;40500;51.084;16.958;2023-03-26T13:39:29;98984.69;;;14.95;100.00
54600;BME280;40500;51.084;16.958;2023-03-26T13:42:20;98985.20;;;14.80;100.00
54600;BME280;40500;51.084;16.958;2023-03-26T13:45:02;98985.88;;;14.65;100.00
54600;BME280;40500;51.084;16.958;2023-03-26T13:47:40;98984.83;;;14.58;100.00
54600;BME280;40500;51.084;16.958;2023-03-26T13:50:20;98982.79;;;14.53;100.00
54600;BME280;40500;51.084;16.958;2023-03-26T13:52:57;98980.19;;;14.39;100.00
54600;BME280;40500;51.084;16.958;2023-03-26T13:55:33;98982.23;;;14.37;100.00
54600;BME280;40500;51.084;16.958;2023-03-26T13:58:12;98982.27;;;14.33;100.00
54600;BME280;40500;51.084;16.958;2023-03-26T14:00:53;98980.00;;;14.06;100.00
54600;BME280;40500;51.084;16.958;2023-03-26T14:03:32;98978.89;;;13.84;100.00
54600;BME280;40500;51.084;16.958;2023-03-26T14:06:11;98972.68;;;13.71;100.00
54600;BME280;40500;51.084;16.958;2023-03-26T14:08:51;98974.64;;;13.61;100.00
54600;BME280;40500;51.084;16.958;2023-03-26T14:11:34;98972.25;;;13.56;100.00
54600;BME280;40500;51.084;16.958;2023-03-26T14:14:12;98970.65;;;13.60;100.00
54600;BME280;40500;51.084;16.958;2023-03-26T14:16:47;98968.39;;;13.52;100.00
54600;BME280;40500;51.084;16.958;2023-03-26T14:19:38;98968.23;;;13.44;100.00
54600;BME280;40500;51.084;16.958;2023-03-26T14:22:20;98967.84;;;13.42;100.00
54600;BME280;40500;51.084;16.958;2023-03-26T14:25:09;98961.10;;;13.40;100.00
54600;BME280;40500;51.084;16.958;2023-03-26T14:27:53;98959.30;;;13.34;100.00
54600;BME280;40500;51.084;16.958;2023-03-26T14:31:03;98955.40;;;13.37;100.00
54600;BME280;40500;51.084;16.958;2023-03-26T14:34:00;98952.77;;;13.27;100.00
54600;BME280;40500;51.084;16.958;2023-03-26T14:36:51;98954.35;;;13.16;100.00